Time;durP1;ratioP1;P1;durP2;ratioP2;P2;SDS_P1;SDS_P2;PMS_P1;PMS_P2;Temp;Humidity;BMP_temperature;BMP_pressure;BME280_temperature;BME280_humidity;BME280_pressure;Samples;Min_cycle;Max_cycle;Signal;HPM_P1;HPM_P2
2022/01/30 00:00:47;;;;;;;31.42;5.50;;;5.70;99.90;;;;;;4717400;30;20052;-60
2022/01/30 00:03:15;;;;;;;32.00;4.80;;;5.80;99.90;;;;;;4747687;30;20059;-61
2022/01/30 00:05:41;;;;;;;30.73;5.47;;;5.80;99.90;;;;;;4748036;30;20055;-61
2022/01/30 00:08:07;;;;;;;31.42;5.60;;;5.90;99.90;;;;;;4732804;30;20059;-60
2022/01/30 00:10:38;;;;;;;26.88;4.05;;;5.90;99.90;;;;;;4724913;30;20044;-60
2022/01/30 00:13:08;;;;;;;29.95;5.00;;;5.90;99.90;;;;;;4749544;30;20052;-61
2022/01/30 00:15:48;;;;;;;34.17;5.10;;;5.80;99.90;;;;;;4748177;30;20052;-61
2022/01/30 00:18:57;;;;;;;14.55;2.75;;;5.80;99.90;;;;;;4748123;30;20133;-60
2022/01/30 00:23:34;;;;;;;16.77;3.35;;;5.70;99.90;;;;;;4747386;30;20048;-61
2022/01/30 00:26:03;;;;;;;17.92;3.50;;;5.60;99.90;;;;;;4702657;30;20052;-62
2022/01/30 00:28:31;;;;;;;20.55;2.80;;;5.60;99.90;;;;;;4734858;30;20500;-61
2022/01/30 00:30:58;;;;;;;24.45;4.90;;;5.60;99.90;;;;;;4741248;30;20048;-62
2022/01/30 00:33:24;;;;;;;27.60;4.10;;;5.60;99.90;;;;;;4719563;30;20495;-61
2022/01/30 00:35:50;;;;;;;19.42;4.00;;;5.60;99.90;;;;;;4734550;30;20063;-61
2022/01/30 00:38:18;;;;;;;13.90;2.92;;;5.60;99.90;;;;;;4720052;30;20543;-61
2022/01/30 00:40:46;;;;;;;17.88;2.67;;;5.50;99.90;;;;;;4733592;30;20602;-60
2022/01/30 00:43:12;;;;;;;19.48;2.95;;;5.50;99.90;;;;;;4734157;30;20515;-60
2022/01/30 00:45:38;;;;;;;20.65;3.92;;;5.40;99.90;;;;;;4746579;30;20056;-61
2022/01/30 00:48:04;;;;;;;25.70;3.83;;;5.40;99.90;;;;;;4747682;30;20121;-62
2022/01/30 00:50:31;;;;;;;25.40;4.93;;;5.40;99.90;;;;;;4747826;30;20055;-60
2022/01/30 00:52:57;;;;;;;37.13;5.07;;;5.30;99.90;;;;;;4724291;30;20066;-61
2022/01/30 00:55:28;;;;;;;29.50;5.47;;;5.30;99.90;;;;;;4746214;30;20056;-60
2022/01/30 00:57:55;;;;;;;29.45;5.63;;;5.30;99.90;;;;;;4746101;30;20048;-62
2022/01/30 01:00:25;;;;;;;37.22;6.00;;;5.30;99.90;;;;;;4744701;30;20064;-61
2022/01/30 01:02:51;;;;;;;33.42;6.00;;;5.30;99.90;;;;;;4748338;30;20048;-61
2022/01/30 01:05:17;;;;;;;33.72;6.40;;;5.20;99.90;;;;;;4747566;30;20420;-61
2022/01/30 01:07:46;;;;;;;39.10;6.43;;;5.20;99.90;;;;;;4749131;30;20079;-60
2022/01/30 01:10:28;;;;;;;31.17;5.70;;;5.20;99.90;;;;;;4751453;30;20058;-61
2022/01/30 01:23:54;;;;;;;35.85;6.72;;;5.20;99.90;;;;;;4748037;30;20048;-62
2022/01/30 01:26:21;;;;;;;39.75;6.28;;;5.30;99.90;;;;;;4747177;30;20163;-60
2022/01/30 01:28:47;;;;;;;41.97;7.72;;;5.30;99.90;;;;;;4747730;30;20052;-60
2022/01/30 01:31:15;;;;;;;34.15;6.22;;;5.40;99.90;;;;;;4724529;30;20750;-60
2022/01/30 01:33:59;;;;;;;38.67;6.55;;;5.40;99.90;;;;;;4750225;30;20060;-60
2022/01/30 01:36:25;;;;;;;44.60;6.43;;;5.50;99.90;;;;;;4745909;30;20056;-60
2022/01/30 01:38:51;;;;;;;40.20;6.65;;;5.50;99.90;;;;;;4745343;30;20534;-61
2022/01/30 01:41:20;;;;;;;34.42;5.95;;;5.50;99.90;;;;;;4731232;30;20125;-61
2022/01/30 01:43:49;;;;;;;33.08;5.80;;;5.50;99.90;;;;;;4725747;30;20428;-60
2022/01/30 01:46:19;;;;;;;35.75;5.40;;;5.40;99.90;;;;;;4747910;30;20056;-61
2022/01/30 01:48:48;;;;;;;33.90;5.60;;;5.30;99.90;;;;;;4745093;30;20091;-60
2022/01/30 01:51:18;;;;;;;34.20;6.20;;;5.30;99.90;;;;;;4732990;30;20078;-60
2022/01/30 01:53:51;;;;;;;35.08;5.88;;;5.30;99.90;;;;;;4725370;30;20524;-61
2022/01/30 01:56:18;;;;;;;38.55;6.07;;;5.20;99.90;;;;;;4729195;30;20565;-62
2022/01/30 01:58:44;;;;;;;41.80;6.53;;;5.20;99.90;;;;;;4734089;30;20048;-62
2022/01/30 02:01:10;;;;;;;36.63;5.95;;;5.20;99.90;;;;;;4759766;30;20052;-60
2022/01/30 02:03:37;;;;;;;43.85;7.72;;;5.20;99.90;;;;;;4745832;30;20063;-61
2022/01/30 02:06:06;;;;;;;40.13;6.57;;;5.20;99.90;;;;;;4744991;30;20102;-61
2022/01/30 02:08:36;;;;;;;45.63;7.35;;;5.30;99.90;;;;;;4745937;30;20083;-61
2022/01/30 02:27:42;;;;;;;37.35;6.10;;;5.50;99.90;;;;;;4760916;30;20044;-61
2022/01/30 02:30:16;;;;;;;37.95;6.43;;;5.40;99.90;;;;;;4746658;30;20131;-60
2022/01/30 02:32:42;;;;;;;44.72;7.25;;;5.40;99.90;;;;;;4745651;30;20048;-61
2022/01/30 02:35:08;;;;;;;47.22;6.50;;;5.40;99.90;;;;;;4746605;30;20056;-60
2022/01/30 02:37:35;;;;;;;46.28;6.43;;;5.40;99.90;;;;;;4731504;30;20476;-60
2022/01/30 02:40:03;;;;;;;39.97;7.93;;;5.30;99.90;;;;;;4748275;30;20621;-60
2022/01/30 02:42:32;;;;;;;46.15;8.35;;;5.30;99.90;;;;;;4730933;30;20105;-61
2022/01/30 02:45:02;;;;;;;51.50;8.70;;;5.30;99.90;;;;;;4718631;30;20416;-60
2022/01/30 02:50:21;;;;;;;50.70;9.40;;;5.30;99.90;;;;;;4760979;30;20133;-61
2022/01/30 02:52:56;;;;;;;45.85;8.13;;;5.30;99.90;;;;;;4746668;30;20516;-61
2022/01/30 02:55:22;;;;;;;37.08;6.75;;;5.30;99.90;;;;;;4745182;30;20109;-61
2022/01/30 02:57:48;;;;;;;52.40;8.25;;;5.40;99.90;;;;;;4744726;30;20462;-60
2022/01/30 03:00:15;;;;;;;50.67;8.00;;;5.30;99.90;;;;;;4730201;30;21000;-61
2022/01/30 03:02:40;;;;;;;50.28;8.50;;;5.40;99.90;;;;;;4745068;30;20056;-60
2022/01/30 03:05:06;;;;;;;48.20;8.82;;;5.40;99.90;;;;;;4735008;30;20056;-60
2022/01/30 03:07:32;;;;;;;45.30;7.90;;;5.40;99.90;;;;;;4729058;30;20079;-61
2022/01/30 03:09:58;;;;;;;47.10;8.18;;;5.40;99.90;;;;;;4731472;30;20136;-61
2022/01/30 03:12:24;;;;;;;48.47;7.13;;;5.40;99.90;;;;;;4744603;30;20052;-60
2022/01/30 03:14:50;;;;;;;40.38;7.75;;;5.40;99.90;;;;;;4746141;30;20484;-61
2022/01/30 03:17:16;;;;;;;47.65;9.48;;;5.40;99.90;;;;;;4745048;30;20059;-60
2022/01/30 03:19:42;;;;;;;50.67;8.77;;;5.40;99.90;;;;;;4731902;30;20052;-61
2022/01/30 03:22:08;;;;;;;43.10;7.95;;;5.40;99.90;;;;;;4725723;30;20052;-61
2022/01/30 03:24:37;;;;;;;58.58;8.75;;;5.50;99.90;;;;;;4740144;30;20091;-61
2022/01/30 03:27:05;;;;;;;45.63;7.63;;;5.50;99.90;;;;;;4744188;30;20062;-61
2022/01/30 03:29:32;;;;;;;49.30;9.05;;;5.60;99.90;;;;;;4744802;30;20064;-60
2022/01/30 03:31:58;;;;;;;58.58;8.40;;;5.60;99.90;;;;;;4745580;30;20059;-61
2022/01/30 03:34:24;;;;;;;51.28;8.25;;;5.60;99.90;;;;;;4743768;30;20539;-60
2022/01/30 03:36:51;;;;;;;50.65;9.38;;;5.60;99.90;;;;;;4706461;30;20219;-61
2022/01/30 03:39:17;;;;;;;58.28;9.13;;;5.60;99.90;;;;;;4745633;30;20052;-60
2022/01/30 03:41:43;;;;;;;51.45;8.00;;;5.60;99.90;;;;;;4746356;30;20106;-61
2022/01/30 03:44:09;;;;;;;49.03;8.80;;;5.60;99.90;;;;;;4730027;30;20060;-61
2022/01/30 03:46:35;;;;;;;45.97;7.25;;;5.60;99.90;;;;;;4748658;30;20091;-61
2022/01/30 03:49:01;;;;;;;55.90;8.73;;;5.60;99.90;;;;;;4747354;30;20055;-62
2022/01/30 03:51:26;;;;;;;57.25;9.65;;;5.60;99.90;;;;;;4736385;30;20063;-61
2022/01/30 03:53:52;;;;;;;60.35;9.68;;;5.60;99.90;;;;;;4727221;30;20052;-60
2022/01/30 03:56:18;;;;;;;53.00;9.40;;;5.60;99.90;;;;;;4744903;30;20055;-62
2022/01/30 03:58:44;;;;;;;57.72;9.07;;;5.70;99.90;;;;;;4738391;30;20072;-61
2022/01/30 04:01:09;;;;;;;47.88;8.35;;;5.70;99.90;;;;;;4747496;30;20088;-61
2022/01/30 04:03:36;;;;;;;40.95;7.35;;;5.70;99.90;;;;;;4720344;30;20048;-61
2022/01/30 04:06:04;;;;;;;49.33;7.35;;;5.70;99.90;;;;;;4747387;30;20485;-60
2022/01/30 04:08:30;;;;;;;49.70;7.57;;;5.60;99.90;;;;;;4734173;30;20116;-60
2022/01/30 04:10:56;;;;;;;46.10;7.75;;;5.60;99.90;;;;;;4762469;30;20797;-60
2022/01/30 04:13:22;;;;;;;52.20;8.27;;;5.60;99.90;;;;;;4747877;30;20404;-61
2022/01/30 04:15:48;;;;;;;65.68;10.13;;;5.60;99.90;;;;;;4746557;30;20504;-60
2022/01/30 04:18:14;;;;;;;52.85;8.68;;;5.60;99.90;;;;;;4733807;30;20102;-61
2022/01/30 04:20:41;;;;;;;60.28;8.60;;;5.60;99.90;;;;;;4748714;30;20080;-60
2022/01/30 04:23:06;;;;;;;57.83;8.88;;;5.60;99.90;;;;;;4720055;30;20067;-61
2022/01/30 04:25:32;;;;;;;58.85;9.88;;;5.60;99.90;;;;;;4747811;30;20052;-61
2022/01/30 04:27:58;;;;;;;58.22;9.77;;;5.70;99.90;;;;;;4731978;30;20113;-61
2022/01/30 04:30:24;;;;;;;72.00;10.27;;;5.60;99.90;;;;;;4731556;30;20053;-61
2022/01/30 04:32:50;;;;;;;79.05;10.65;;;5.60;99.90;;;;;;4734346;30;20044;-60
2022/01/30 04:35:26;;;;;;;62.53;9.88;;;5.70;99.90;;;;;;4735426;30;20094;-60
2022/01/30 05:02:45;;;;;;;50.05;9.73;;;5.70;99.90;;;;;;4731444;30;20055;-61
2022/01/30 05:07:58;;;;;;;63.47;10.50;;;5.80;99.90;;;;;;4714029;30;19971;-60
2022/01/30 05:10:24;;;;;;;63.67;9.48;;;5.80;99.90;;;;;;4744353;30;20063;-61
2022/01/30 05:12:54;;;;;;;59.72;10.35;;;5.80;99.90;;;;;;4745661;30;20052;-61
2022/01/30 05:15:21;;;;;;;57.25;10.20;;;5.90;99.90;;;;;;4744793;30;20105;-61
2022/01/30 05:17:47;;;;;;;67.57;9.70;;;5.80;99.90;;;;;;4716800;30;20078;-61
2022/01/30 05:20:13;;;;;;;54.00;9.57;;;5.90;99.90;;;;;;4744955;30;20060;-61
2022/01/30 05:22:40;;;;;;;56.60;10.00;;;5.80;99.90;;;;;;4724619;30;20079;-61
2022/01/30 05:25:06;;;;;;;69.53;10.52;;;5.80;99.90;;;;;;4743787;30;20058;-61
2022/01/30 05:27:33;;;;;;;56.35;9.77;;;5.80;99.90;;;;;;4759393;30;20048;-61
2022/01/30 05:29:59;;;;;;;62.45;10.27;;;5.70;99.90;;;;;;4728272;30;20075;-60
2022/01/30 05:32:25;;;;;;;52.53;9.48;;;5.70;99.90;;;;;;4746383;30;20233;-60
2022/01/30 05:34:51;;;;;;;67.43;10.85;;;5.70;99.90;;;;;;4729398;30;20058;-61
2022/01/30 05:37:18;;;;;;;64.57;10.82;;;5.70;99.90;;;;;;4744991;30;20047;-62
2022/01/30 05:39:45;;;;;;;69.22;10.38;;;5.70;99.90;;;;;;4714000;30;20119;-61
2022/01/30 05:42:13;;;;;;;58.00;9.77;;;5.70;99.90;;;;;;4730146;30;20148;-60
2022/01/30 05:44:58;;;;;;;60.35;10.02;;;5.70;99.90;;;;;;4744518;30;20573;-61
2022/01/30 05:47:41;;;;;;;62.25;10.82;;;5.70;99.90;;;;;;4744882;30;20068;-60
2022/01/30 05:50:08;;;;;;;69.93;10.70;;;5.70;99.90;;;;;;4744015;30;20469;-61
2022/01/30 05:52:34;;;;;;;58.33;8.13;;;5.70;99.90;;;;;;4730356;30;20052;-61
2022/01/30 05:54:59;;;;;;;52.13;8.48;;;5.70;99.90;;;;;;4714519;30;20064;-61
2022/01/30 05:57:27;;;;;;;52.00;7.60;;;5.60;99.90;;;;;;4733378;30;20048;-61
2022/01/30 05:59:53;;;;;;;45.33;7.80;;;5.60;99.90;;;;;;4723390;30;20432;-60
2022/01/30 06:02:18;;;;;;;58.08;8.98;;;5.40;99.90;;;;;;4744521;30;20058;-61
2022/01/30 06:04:44;;;;;;;42.45;8.20;;;5.40;99.90;;;;;;4745700;30;21389;-61
2022/01/30 06:07:11;;;;;;;50.30;9.50;;;5.30;99.90;;;;;;4744286;30;20048;-61
2022/01/30 06:09:37;;;;;;;47.47;8.52;;;5.30;99.90;;;;;;4718878;30;20488;-60
2022/01/30 06:12:04;;;;;;;57.03;9.52;;;5.20;99.90;;;;;;4744156;30;20419;-61
2022/01/30 06:14:30;;;;;;;58.88;10.10;;;5.20;99.90;;;;;;4729391;30;20067;-61
2022/01/30 06:16:56;;;;;;;57.70;9.85;;;5.20;99.90;;;;;;4745126;30;20428;-60
2022/01/30 06:19:22;;;;;;;63.78;9.43;;;5.30;99.90;;;;;;4745019;30;20113;-61
2022/01/30 06:21:51;;;;;;;60.15;9.13;;;5.30;99.90;;;;;;4731156;30;20561;-61
2022/01/30 06:24:17;;;;;;;57.95;9.63;;;5.40;99.90;;;;;;4718470;30;20059;-61
2022/01/30 06:26:43;;;;;;;55.00;9.98;;;5.40;99.90;;;;;;4731135;30;20134;-61
2022/01/30 06:29:09;;;;;;;55.72;9.10;;;5.40;99.90;;;;;;4742579;30;20056;-61
2022/01/30 06:31:35;;;;;;;58.95;9.57;;;5.40;99.90;;;;;;4742665;30;20056;-61
2022/01/30 06:34:00;;;;;;;57.55;10.43;;;5.40;99.90;;;;;;4714971;30;20048;-61
2022/01/30 06:36:26;;;;;;;65.75;9.55;;;5.40;99.90;;;;;;4727032;30;20052;-61
2022/01/30 06:38:53;;;;;;;44.20;8.27;;;5.50;99.90;;;;;;4730000;30;20063;-61
2022/01/30 06:41:19;;;;;;;41.83;7.65;;;5.50;99.90;;;;;;4757155;30;20063;-61
2022/01/30 06:43:45;;;;;;;53.85;9.55;;;5.50;99.90;;;;;;4743951;30;20055;-61
2022/01/30 06:46:12;;;;;;;54.95;9.63;;;5.60;99.90;;;;;;4720091;30;20058;-61
2022/01/30 06:48:38;;;;;;;50.50;9.25;;;5.60;99.90;;;;;;4738392;30;20098;-61
2022/01/30 06:51:07;;;;;;;54.90;9.70;;;5.70;99.90;;;;;;4745307;30;20040;-60
2022/01/30 06:53:33;;;;;;;58.20;9.20;;;5.60;99.90;;;;;;4730870;30;20052;-61
2022/01/30 06:56:00;;;;;;;56.88;8.35;;;5.60;99.90;;;;;;4743056;30;20060;-61
2022/01/30 06:58:25;;;;;;;56.63;8.93;;;5.60;99.90;;;;;;4729327;30;20059;-60
2022/01/30 07:00:51;;;;;;;56.53;9.27;;;5.60;99.90;;;;;;4743897;30;20048;-61
2022/01/30 07:03:17;;;;;;;62.75;9.40;;;5.60;99.90;;;;;;4750532;30;20049;-61
2022/01/30 07:05:43;;;;;;;57.25;10.70;;;5.60;99.90;;;;;;4743692;30;20048;-61
2022/01/30 07:08:09;;;;;;;62.28;9.77;;;5.60;99.90;;;;;;4732805;30;20060;-61
2022/01/30 07:10:35;;;;;;;66.30;9.90;;;5.50;99.90;;;;;;4745343;30;20056;-62
2022/01/30 07:13:00;;;;;;;68.38;11.20;;;5.50;99.90;;;;;;4730137;30;20105;-61
2022/01/30 07:15:26;;;;;;;70.28;9.55;;;5.50;99.90;;;;;;4719914;30;20139;-60
2022/01/30 07:17:52;;;;;;;47.88;8.77;;;5.50;99.90;;;;;;4729369;30;20493;-61
2022/01/30 07:20:19;;;;;;;43.88;7.10;;;5.50;99.90;;;;;;4730645;30;20056;-61
2022/01/30 07:22:44;;;;;;;52.45;9.27;;;5.50;99.90;;;;;;4747858;30;20063;-62
2022/01/30 07:25:10;;;;;;;46.88;8.00;;;5.50;99.90;;;;;;4747608;30;20051;-61
2022/01/30 07:27:37;;;;;;;41.70;6.65;;;5.60;99.90;;;;;;4749988;30;20055;-60
2022/01/30 07:30:07;;;;;;;40.67;7.43;;;5.60;99.90;;;;;;4746922;30;20136;-61
2022/01/30 07:32:33;;;;;;;47.90;6.97;;;5.60;99.90;;;;;;4751853;30;20711;-60
2022/01/30 07:34:59;;;;;;;38.85;6.65;;;5.50;99.90;;;;;;4734203;30;20074;-60
2022/01/30 07:37:25;;;;;;;43.78;7.93;;;5.50;99.90;;;;;;4750560;30;20048;-61
2022/01/30 07:39:52;;;;;;;40.67;7.60;;;5.50;99.90;;;;;;4722652;30;21204;-60
2022/01/30 07:42:19;;;;;;;52.70;7.63;;;5.50;99.90;;;;;;4742420;30;20122;-60
2022/01/30 07:44:45;;;;;;;48.15;8.80;;;5.50;99.90;;;;;;4748158;30;20066;-61
2022/01/30 07:47:10;;;;;;;51.58;7.57;;;5.50;99.90;;;;;;4747404;30;20137;-61
2022/01/30 07:49:36;;;;;;;46.78;8.18;;;5.50;99.90;;;;;;4731048;30;20060;-61
2022/01/30 07:52:02;;;;;;;42.60;8.40;;;5.50;99.90;;;;;;4726927;30;20075;-61
2022/01/30 07:54:31;;;;;;;48.17;8.57;;;5.40;99.90;;;;;;4746759;30;20105;-61
2022/01/30 07:56:57;;;;;;;48.78;8.77;;;5.50;99.90;;;;;;4731651;30;20044;-60
2022/01/30 07:59:23;;;;;;;53.47;8.55;;;5.40;99.90;;;;;;4717736;30;20431;-61
2022/01/30 08:01:49;;;;;;;45.15;7.88;;;5.40;99.90;;;;;;4760012;30;20131;-60
2022/01/30 08:04:15;;;;;;;49.78;8.90;;;5.40;99.90;;;;;;4738336;30;20059;-62
2022/01/30 08:06:40;;;;;;;47.85;7.57;;;5.40;99.90;;;;;;4747766;30;20062;-60
2022/01/30 08:09:06;;;;;;;53.60;9.27;;;5.40;99.90;;;;;;4749128;30;20560;-61
2022/01/30 08:11:32;;;;;;;43.33;8.80;;;5.40;99.90;;;;;;4748758;30;20060;-60
2022/01/30 08:13:58;;;;;;;53.65;9.23;;;5.40;99.90;;;;;;4738483;30;20056;-62
2022/01/30 08:16:26;;;;;;;52.30;9.00;;;5.50;99.90;;;;;;4732302;30;20240;-61
2022/01/30 08:18:52;;;;;;;53.80;9.50;;;5.50;99.90;;;;;;4728374;30;20052;-61
2022/01/30 08:21:18;;;;;;;58.92;10.32;;;5.50;99.90;;;;;;4755722;30;20056;-60
2022/01/30 08:23:43;;;;;;;70.00;9.15;;;5.50;99.90;;;;;;4739292;30;20143;-61
2022/01/30 08:26:09;;;;;;;56.17;8.18;;;5.50;99.90;;;;;;4705239;30;20079;-61
2022/01/30 08:28:35;;;;;;;58.67;9.40;;;5.50;99.90;;;;;;4722688;30;20572;-62
2022/01/30 08:31:01;;;;;;;46.22;8.27;;;5.50;99.90;;;;;;4732340;30;20060;-62
2022/01/30 08:33:27;;;;;;;44.13;8.75;;;5.50;99.90;;;;;;4737307;30;20060;-61
2022/01/30 08:35:53;;;;;;;51.40;8.30;;;5.40;99.90;;;;;;4724464;30;20051;-61
2022/01/30 08:38:19;;;;;;;42.67;8.23;;;5.50;99.90;;;;;;4739487;30;20411;-62
2022/01/30 08:40:48;;;;;;;48.25;7.85;;;5.50;99.90;;;;;;4754772;30;20056;-63
2022/01/30 08:43:15;;;;;;;55.65;7.43;;;5.50;99.90;;;;;;4737039;30;20052;-63
2022/01/30 08:45:41;;;;;;;55.30;9.25;;;5.60;99.90;;;;;;4737790;30;20144;-61
2022/01/30 08:48:07;;;;;;;40.17;7.45;;;5.60;99.90;;;;;;4725392;30;20143;-62
2022/01/30 08:50:33;;;;;;;54.03;8.07;;;5.60;99.90;;;;;;4752890;30;20101;-62
2022/01/30 08:52:59;;;;;;;55.38;7.75;;;5.60;99.90;;;;;;4739685;30;20138;-62
2022/01/30 08:55:29;;;;;;;57.50;8.05;;;5.60;99.90;;;;;;4738042;30;20048;-61
2022/01/30 08:57:56;;;;;;;50.30;9.10;;;5.50;99.90;;;;;;4738603;30;20497;-62
2022/01/30 09:00:22;;;;;;;63.85;10.05;;;5.50;99.90;;;;;;4723682;30;20512;-62
2022/01/30 09:02:48;;;;;;;51.53;9.10;;;5.50;99.90;;;;;;4739908;30;20135;-63
2022/01/30 09:05:13;;;;;;;50.53;8.88;;;5.60;99.90;;;;;;4737988;30;20052;-62
2022/01/30 09:07:40;;;;;;;53.72;8.68;;;5.60;99.90;;;;;;4733567;30;20117;-63
2022/01/30 09:10:08;;;;;;;62.25;9.02;;;5.70;99.90;;;;;;4738499;30;21788;-62
2022/01/30 09:12:34;;;;;;;56.45;10.00;;;5.80;99.90;;;;;;4752312;30;20522;-62
2022/01/30 09:15:05;;;;;;;58.95;9.00;;;5.80;99.90;;;;;;4741215;30;20576;-63
2022/01/30 09:17:31;;;;;;;43.63;9.48;;;5.80;99.90;;;;;;4708850;30;20516;-62
2022/01/30 09:19:57;;;;;;;39.10;7.57;;;5.80;99.90;;;;;;4719006;30;20048;-61
2022/01/30 09:22:23;;;;;;;54.80;8.20;;;5.80;99.90;;;;;;4748116;30;20060;-62
2022/01/30 09:24:49;;;;;;;52.25;8.85;;;5.70;99.90;;;;;;4722707;30;20517;-62
2022/01/30 09:27:15;;;;;;;47.10;8.52;;;5.80;99.90;;;;;;4750277;30;20064;-62
2022/01/30 09:29:43;;;;;;;50.20;9.18;;;5.80;99.90;;;;;;4717589;30;20056;-62
2022/01/30 09:32:09;;;;;;;46.58;7.63;;;5.90;99.90;;;;;;4738344;30;21034;-62
2022/01/30 09:34:36;;;;;;;49.45;8.48;;;6.00;99.90;;;;;;4732522;30;20055;-62
2022/01/30 09:37:03;;;;;;;48.55;7.78;;;5.90;99.90;;;;;;4730336;30;20542;-62
2022/01/30 09:39:29;;;;;;;46.85;7.72;;;6.00;99.90;;;;;;4731755;30;20059;-62
2022/01/30 09:41:55;;;;;;;46.67;7.90;;;6.00;99.90;;;;;;4732313;30;20047;-63
2022/01/30 09:44:22;;;;;;;43.17;7.50;;;6.10;99.90;;;;;;4728206;30;20064;-62
2022/01/30 09:46:50;;;;;;;47.65;6.95;;;6.10;99.90;;;;;;4732203;30;20059;-63
2022/01/30 09:49:21;;;;;;;49.85;7.18;;;6.10;99.90;;;;;;4732079;30;20084;-62
2022/01/30 09:51:47;;;;;;;55.03;9.07;;;6.20;99.90;;;;;;4734924;30;20656;-62
2022/01/30 09:54:12;;;;;;;51.08;7.97;;;6.30;99.90;;;;;;4735793;30;20048;-62
2022/01/30 09:56:39;;;;;;;53.58;8.13;;;6.30;99.90;;;;;;4735923;30;20051;-63
2022/01/30 09:59:06;;;;;;;38.88;7.55;;;6.30;99.90;;;;;;4733173;30;21013;-63
2022/01/30 10:01:34;;;;;;;54.75;9.00;;;6.30;99.90;;;;;;4735298;30;20059;-61
2022/01/30 10:04:01;;;;;;;44.88;8.13;;;6.30;99.90;;;;;;4716241;30;20059;-61
2022/01/30 10:06:33;;;;;;;48.72;8.00;;;6.30;99.90;;;;;;4735630;30;20071;-62
2022/01/30 10:09:20;;;;;;;55.45;8.35;;;6.40;99.90;;;;;;4732517;30;20213;-62
2022/01/30 10:11:59;;;;;;;57.70;8.43;;;6.40;99.90;;;;;;4734507;30;20076;-62
2022/01/30 10:14:25;;;;;;;49.47;8.20;;;6.50;99.90;;;;;;4705575;30;20055;-61
2022/01/30 10:16:51;;;;;;;44.13;7.65;;;6.70;99.90;;;;;;4733022;30;20416;-62
2022/01/30 10:19:24;;;;;;;52.63;8.10;;;6.80;99.90;;;;;;4708389;30;20133;-62
2022/01/30 10:22:04;;;;;;;;;;;6.80;99.90;;;;;;4752172;30;20059;-63
2022/01/30 10:24:35;;;;;;;53.10;8.68;;;6.80;99.90;;;;;;4733118;30;19926;-62
2022/01/30 10:27:18;;;;;;;50.40;8.45;;;6.80;99.90;;;;;;4732969;30;20060;-63
2022/01/30 10:29:44;;;;;;;44.22;8.20;;;6.70;99.90;;;;;;4727424;30;20098;-63
2022/01/30 10:32:10;;;;;;;58.60;9.18;;;6.70;99.90;;;;;;4735361;30;22334;-63
2022/01/30 10:34:38;;;;;;;58.47;8.75;;;6.60;99.90;;;;;;4734486;30;20056;-62
2022/01/30 10:37:21;;;;;;;44.88;7.57;;;6.60;99.90;;;;;;4747193;30;20162;-62
2022/01/30 10:39:53;;;;;;;44.65;8.68;;;6.60;99.90;;;;;;4721486;30;20075;-62
2022/01/30 10:42:40;;;;;;;44.63;8.10;;;6.60;99.90;;;;;;4730838;30;20047;-62
2022/01/30 10:45:08;;;;;;;44.35;8.82;;;6.70;99.90;;;;;;4739819;30;20056;-62
2022/01/30 10:47:36;;;;;;;47.20;8.38;;;6.70;99.90;;;;;;4733868;30;20060;-63
2022/01/30 10:50:11;;;;;;;47.67;7.57;;;6.80;99.90;;;;;;4734506;30;20066;-63
2022/01/30 10:52:52;;;;;;;46.28;8.30;;;6.80;99.90;;;;;;4735171;30;20043;-62
2022/01/30 10:55:31;;;;;;;36.95;7.40;;;6.90;99.90;;;;;;4753145;30;20044;-62
2022/01/30 10:58:03;;;;;;;49.40;8.00;;;7.00;99.90;;;;;;4729766;30;20051;-63
2022/01/30 11:00:41;;;;;;;45.30;7.93;;;7.10;99.90;;;;;;4735689;30;20062;-62
2022/01/30 11:03:09;;;;;;;49.55;7.53;;;7.20;99.90;;;;;;4765557;30;20104;-61
2022/01/30 11:05:56;;;;;;;38.20;7.47;;;7.30;99.90;;;;;;4747459;30;20112;-61
2022/01/30 11:08:23;;;;;;;47.45;7.70;;;7.50;99.90;;;;;;4766678;30;20143;-61
2022/01/30 11:11:12;;;;;;;45.42;7.07;;;7.60;99.90;;;;;;4752460;30;20423;-61
2022/01/30 11:14:35;;;;;;;40.97;7.30;;;7.60;99.80;;;;;;4752940;30;20571;-61
2022/01/30 11:19:31;;;;;;;44.65;8.43;;;7.60;99.70;;;;;;4698699;30;20145;-60
2022/01/30 11:22:00;;;;;;;44.47;8.23;;;7.60;99.50;;;;;;4744252;30;20492;-61
2022/01/30 11:24:26;;;;;;;56.10;7.95;;;7.50;99.40;;;;;;4744362;30;20064;-61
2022/01/30 11:26:53;;;;;;;42.38;8.10;;;7.40;99.60;;;;;;4741915;30;20086;-61
2022/01/30 11:29:20;;;;;;;48.00;8.82;;;7.40;99.90;;;;;;4752439;30;20052;-62
2022/01/30 11:31:47;;;;;;;46.65;8.07;;;7.60;99.90;;;;;;4753385;30;20066;-62
2022/01/30 11:34:13;;;;;;;45.15;6.95;;;7.60;99.60;;;;;;4768104;30;20059;-60
2022/01/30 11:36:41;;;;;;;42.38;8.00;;;7.70;99.50;;;;;;4723636;30;20416;-60
2022/01/30 11:39:12;;;;;;;52.25;8.20;;;7.70;99.80;;;;;;4752405;30;20048;-61
2022/01/30 11:41:38;;;;;;;51.70;7.38;;;7.70;99.60;;;;;;4752709;30;20044;-61
2022/01/30 11:44:20;;;;;;;47.78;7.55;;;7.80;99.50;;;;;;4752481;30;20056;-62
2022/01/30 11:46:52;;;;;;;41.28;6.70;;;7.90;99.90;;;;;;4753378;30;20064;-61
2022/01/30 11:49:19;;;;;;;50.42;8.75;;;7.90;99.90;;;;;;4753006;30;20468;-60
2022/01/30 11:51:52;;;;;;;49.83;8.07;;;8.00;99.90;;;;;;4753072;30;20055;-61
2022/01/30 11:54:39;;;;;;;44.65;7.30;;;8.00;99.70;;;;;;4752761;30;20520;-61
2022/01/30 11:57:21;;;;;;;52.20;8.52;;;8.10;99.90;;;;;;4752371;30;20044;-61
2022/01/30 11:59:47;;;;;;;36.85;7.43;;;8.20;99.90;;;;;;4752450;30;20512;-62
2022/01/30 12:02:33;;;;;;;37.95;7.32;;;8.20;99.50;;;;;;4753033;30;20458;-61
2022/01/30 12:05:08;;;;;;;50.15;7.55;;;8.20;98.70;;;;;;4727516;30;20062;-61
2022/01/30 12:07:48;;;;;;;50.65;6.93;;;8.20;98.20;;;;;;4764756;30;20060;-62
2022/01/30 12:10:26;;;;;;;47.60;7.97;;;8.20;97.90;;;;;;4742795;30;20553;-61
2022/01/30 12:12:56;;;;;;;40.92;7.15;;;8.30;98.30;;;;;;4749806;30;20052;-61
2022/01/30 12:15:37;;;;;;;56.33;8.65;;;8.30;98.40;;;;;;4749611;30;20051;-61
2022/01/30 12:18:49;;;;;;;44.28;8.48;;;8.20;98.60;;;;;;4750078;30;20535;-62
2022/01/30 12:21:18;;;;;;;49.35;8.43;;;8.00;98.90;;;;;;4725190;30;20527;-61
2022/01/30 12:23:44;;;;;;;46.05;8.00;;;7.90;99.30;;;;;;4727330;30;20134;-62
2022/01/30 12:26:15;;;;;;;49.60;7.78;;;7.70;99.70;;;;;;4755687;30;20131;-61
2022/01/30 12:28:51;;;;;;;47.63;8.48;;;7.50;99.50;;;;;;4758021;30;20109;-61
2022/01/30 12:31:29;;;;;;;35.05;7.07;;;7.40;99.60;;;;;;4748867;30;20079;-61
2022/01/30 12:34:15;;;;;;;39.42;7.55;;;7.40;99.50;;;;;;4751533;30;20070;-61
2022/01/30 12:36:54;;;;;;;46.90;7.78;;;7.50;99.60;;;;;;4749285;30;20052;-61
2022/01/30 12:39:23;;;;;;;36.35;5.85;;;7.50;99.60;;;;;;4739740;30;20110;-62
2022/01/30 12:41:51;;;;;;;40.88;7.35;;;7.60;99.40;;;;;;4749565;30;20123;-61
2022/01/30 12:44:20;;;;;;;36.88;6.68;;;7.70;99.00;;;;;;4712032;30;20048;-61
2022/01/30 12:46:49;;;;;;;47.88;8.18;;;7.80;98.80;;;;;;4763704;30;20056;-62
2022/01/30 12:49:21;;;;;;;41.38;6.95;;;8.00;98.90;;;;;;4763341;30;20132;-61
2022/01/30 12:51:53;;;;;;;37.50;6.85;;;8.10;98.40;;;;;;4734966;30;20056;-61
2022/01/30 12:54:21;;;;;;;47.75;7.53;;;8.20;97.40;;;;;;4749399;30;20109;-61
2022/01/30 12:56:52;;;;;;;29.90;6.15;;;8.30;97.30;;;;;;4749430;30;20056;-61
2022/01/30 12:59:23;;;;;;;39.15;6.25;;;8.50;97.00;;;;;;4748888;30;20420;-61
2022/01/30 13:01:49;;;;;;;46.05;7.05;;;8.50;96.30;;;;;;4748764;30;20514;-61
2022/01/30 13:04:21;;;;;;;36.58;7.15;;;8.60;95.70;;;;;;4738042;30;20132;-61
2022/01/30 13:06:51;;;;;;;39.95;6.10;;;8.60;95.60;;;;;;4763912;30;20048;-61
2022/01/30 13:09:25;;;;;;;45.83;6.95;;;8.60;96.20;;;;;;4738577;30;20056;-61
2022/01/30 13:11:59;;;;;;;46.97;8.23;;;8.70;95.60;;;;;;4734570;30;20052;-62
2022/01/30 13:14:39;;;;;;;38.22;6.78;;;8.70;95.40;;;;;;4734160;30;20100;-61
2022/01/30 13:17:08;;;;;;;42.45;7.05;;;8.80;95.50;;;;;;4748301;30;20131;-61
2022/01/30 13:19:39;;;;;;;41.08;6.97;;;8.80;95.80;;;;;;4755508;30;20120;-61
2022/01/30 13:22:08;;;;;;;38.10;6.60;;;8.70;95.40;;;;;;4762890;30;20059;-61
2022/01/30 13:24:35;;;;;;;40.63;7.05;;;8.60;95.80;;;;;;4748770;30;20119;-62
2022/01/30 13:27:04;;;;;;;35.55;6.90;;;8.40;96.50;;;;;;4763329;30;20056;-62
2022/01/30 13:29:34;;;;;;;36.80;6.30;;;8.40;96.80;;;;;;4748244;30;20052;-61
2022/01/30 13:32:05;;;;;;;39.08;7.55;;;8.30;96.60;;;;;;4751489;30;20079;-61
2022/01/30 13:34:33;;;;;;;41.67;6.83;;;8.10;96.60;;;;;;4737524;30;20179;-62
2022/01/30 13:37:15;;;;;;;39.50;6.38;;;8.00;96.90;;;;;;4748523;30;20078;-62
2022/01/30 13:39:50;;;;;;;33.08;6.43;;;7.90;97.20;;;;;;4748752;30;20052;-62
2022/01/30 13:46:54;;;;;;;40.95;6.45;;;7.70;97.10;;;;;;4749085;30;20527;-62
2022/01/30 13:47:54;;;;;;;33.97;6.18;;;7.70;97.40;;;;;;4748221;30;20065;-62
2022/01/30 13:50:24;;;;;;;37.72;6.53;;;7.60;97.90;;;;;;4726035;30;20056;-61
2022/01/30 13:53:12;;;;;;;34.47;6.80;;;7.50;98.20;;;;;;4762658;30;20044;-61
2022/01/30 13:56:05;;;;;;;36.47;6.10;;;7.50;98.50;;;;;;4740938;30;20051;-61
2022/01/30 13:58:37;;;;;;;35.17;7.18;;;7.40;98.40;;;;;;4747840;30;20102;-61
2022/01/30 14:01:07;;;;;;;40.05;6.18;;;7.40;98.20;;;;;;4762852;30;20071;-61